createdAt,value
2023-03-17T00:01:40.798Z,94.71
2023-03-17T00:04:29.113Z,94.59
2023-03-17T00:07:17.080Z,95.13
2023-03-17T00:10:00.083Z,95.88
2023-03-17T00:12:29.510Z,95.80
2023-03-17T00:15:06.006Z,95.63
2023-03-17T00:18:00.370Z,95.56
2023-03-17T00:20:34.973Z,95.79
2023-03-17T00:23:13.141Z,95.93
2023-03-17T00:26:19.945Z,95.90
2023-03-17T00:28:56.488Z,95.98
2023-03-17T00:34:46.781Z,96.72
2023-03-17T00:38:14.858Z,96.74
2023-03-17T00:47:52.739Z,98.25
2023-03-17T00:51:07.850Z,98.46
2023-03-17T00:56:27.474Z,97.91
2023-03-17T00:58:59.437Z,97.86
2023-03-17T01:01:32.775Z,97.70
2023-03-17T01:04:26.822Z,97.30
2023-03-17T01:07:28.350Z,97.12
2023-03-17T01:10:40.018Z,97.56
2023-03-17T01:16:16.199Z,97.12
2023-03-17T01:22:14.538Z,97.26
2023-03-17T01:25:10.626Z,96.74
2023-03-17T01:28:05.887Z,96.33
2023-03-17T01:30:52.791Z,96.17
2023-03-17T01:33:27.301Z,95.67
2023-03-17T01:35:57.430Z,95.47
2023-03-17T01:38:40.023Z,95.99
2023-03-17T01:44:25.814Z,95.96
2023-03-17T01:47:12.997Z,95.49
2023-03-17T01:53:33.125Z,95.29
2023-03-17T01:56:17.703Z,95.31
2023-03-17T01:59:26.198Z,94.99
2023-03-17T02:02:09.930Z,95.09
2023-03-17T02:04:53.323Z,95.62
2023-03-17T02:07:25.216Z,95.92
2023-03-17T02:10:18.297Z,96.13
2023-03-17T02:12:57.484Z,95.98
2023-03-17T02:15:51.445Z,95.83
2023-03-17T02:18:22.398Z,95.39
2023-03-17T02:20:57.913Z,94.97
2023-03-17T02:23:28.217Z,95.38
2023-03-17T02:25:56.742Z,95.44
2023-03-17T02:28:29.727Z,95.13
2023-03-17T02:30:59.897Z,94.94
2023-03-17T02:33:29.432Z,95.07
2023-03-17T02:36:05.774Z,95.18
2023-03-17T02:38:36.252Z,95.30
2023-03-17T02:41:10.120Z,95.33
2023-03-17T02:43:39.523Z,95.51
2023-03-17T02:46:09.039Z,95.81
2023-03-17T02:48:41.168Z,96.11
2023-03-17T02:51:22.988Z,96.35
2023-03-17T02:53:59.774Z,96.78
2023-03-17T02:56:29.657Z,97.39
2023-03-17T02:59:03.107Z,97.42
2023-03-17T03:01:34.525Z,97.37
2023-03-17T03:04:05.120Z,97.74
2023-03-17T03:06:35.481Z,97.84
2023-03-17T03:09:06.098Z,97.78
2023-03-17T03:14:28.289Z,97.96
2023-03-17T03:17:01.292Z,97.92
2023-03-17T03:20:00.064Z,97.93
2023-03-17T03:22:30.546Z,98.25
2023-03-17T03:25:01.399Z,98.37
2023-03-17T03:27:31.090Z,98.39
2023-03-17T03:30:00.214Z,98.55
2023-03-17T03:32:30.307Z,98.76
2023-03-17T03:34:59.843Z,98.26
2023-03-17T03:37:33.806Z,97.86
2023-03-17T03:40:04.454Z,97.72
2023-03-17T03:42:33.986Z,97.72
2023-03-17T03:51:52.112Z,97.67
2023-03-17T03:55:59.081Z,97.73
2023-03-17T03:58:42.535Z,97.92
2023-03-17T04:01:11.404Z,97.98
2023-03-17T04:03:49.809Z,98.03
2023-03-17T04:06:17.662Z,98.28
2023-03-17T04:08:46.517Z,98.19
2023-03-17T04:11:13.800Z,98.22
2023-03-17T04:13:41.877Z,98.23
2023-03-17T04:16:26.693Z,98.49
2023-03-17T04:18:55.001Z,98.62
2023-03-17T04:21:23.927Z,98.73
2023-03-17T04:23:51.804Z,99.16
2023-03-17T04:26:19.649Z,99.49
2023-03-17T04:28:49.733Z,99.59
2023-03-17T04:32:50.249Z,99.10
2023-03-17T04:35:28.727Z,98.54
2023-03-17T04:38:00.109Z,98.22
2023-03-17T04:40:31.445Z,97.87
2023-03-17T04:43:02.431Z,97.70
2023-03-17T04:45:32.591Z,97.53
2023-03-17T04:48:03.555Z,97.44
2023-03-17T04:50:42.636Z,97.45
2023-03-17T04:53:12.410Z,97.54
2023-03-17T04:56:32.908Z,97.76
2023-03-17T04:59:03.425Z,97.63
2023-03-17T05:01:40.388Z,97.64
2023-03-17T05:04:07.608Z,97.91
2023-03-17T05:06:37.202Z,97.98
2023-03-17T05:09:05.259Z,97.94
2023-03-17T05:11:33.937Z,98.20
2023-03-17T05:14:01.088Z,98.47
2023-03-17T05:16:30.800Z,98.64
2023-03-17T05:19:19.056Z,98.51
2023-03-17T05:21:47.922Z,98.50
2023-03-17T05:24:22.600Z,98.87
2023-03-17T05:34:41.160Z,98.51
2023-03-17T05:40:13.788Z,98.77
2023-03-17T05:43:12.907Z,98.66
2023-03-17T05:45:41.077Z,98.85
2023-03-17T05:48:12.919Z,98.56
2023-03-17T05:50:56.787Z,98.80
2023-03-17T05:53:24.749Z,99.15
2023-03-17T05:55:54.715Z,99.05
2023-03-17T05:58:28.373Z,99.14
2023-03-17T06:01:01.516Z,99.35
2023-03-17T06:06:26.948Z,99.17
2023-03-17T06:08:57.278Z,99.16
2023-03-17T06:11:27.255Z,99.16
2023-03-17T06:16:58.885Z,98.86
2023-03-17T06:19:49.337Z,98.76
2023-03-17T06:22:25.018Z,98.81
2023-03-17T06:24:53.298Z,98.14
2023-03-17T06:27:55.426Z,97.98
2023-03-17T06:30:31.730Z,97.94
2023-03-17T06:33:03.418Z,97.93
2023-03-17T06:35:35.138Z,98.14
2023-03-17T06:38:11.931Z,98.22
2023-03-17T06:40:53.703Z,98.32
2023-03-17T06:46:41.563Z,98.60
2023-03-17T06:49:31.241Z,98.50
2023-03-17T06:55:30.130Z,98.06
2023-03-17T06:58:27.053Z,98.29
2023-03-17T07:05:04.204Z,98.22
2023-03-17T07:07:42.967Z,97.99
2023-03-17T07:10:33.205Z,97.71
2023-03-17T07:13:08.291Z,97.12
2023-03-17T07:15:40.725Z,97.25
2023-03-17T07:18:35.910Z,96.78
2023-03-17T07:22:27.228Z,96.46
2023-03-17T07:25:16.626Z,96.14
2023-03-17T07:27:57.203Z,96.15
2023-03-17T07:34:35.242Z,95.95
2023-03-17T07:37:15.676Z,95.94
2023-03-17T07:41:05.710Z,96.01
2023-03-17T07:43:58.730Z,96.03
2023-03-17T07:47:02.609Z,95.94
2023-03-17T07:49:49.871Z,95.52
2023-03-17T07:52:21.672Z,95.24
2023-03-17T07:54:56.400Z,95.19
2023-03-17T08:16:31.586Z,92.71
2023-03-17T08:19:18.153Z,92.85
2023-03-17T08:25:30.600Z,93.00
2023-03-17T08:28:13.509Z,92.77
2023-03-17T08:31:21.412Z,92.72
2023-03-17T08:33:56.857Z,92.71
2023-03-17T08:36:26.214Z,92.53
2023-03-17T08:39:32.899Z,92.71
2023-03-17T08:45:29.181Z,92.08
2023-03-17T08:48:06.830Z,91.52
2023-03-17T08:50:38.093Z,91.18
2023-03-17T08:53:05.633Z,90.86
2023-03-17T08:55:53.456Z,90.91
2023-03-17T09:01:39.601Z,91.48
2023-03-17T09:04:19.729Z,91.55
2023-03-17T09:07:10.175Z,91.38
2023-03-17T09:09:55.818Z,91.02
2023-03-17T09:12:28.319Z,90.62
2023-03-17T09:15:15.667Z,90.86
2023-03-17T09:21:35.188Z,90.97
2023-03-17T09:25:00.156Z,90.93
2023-03-17T09:27:32.869Z,90.81
2023-03-17T09:30:06.608Z,90.88
2023-03-17T09:32:51.249Z,90.45
2023-03-17T09:36:04.864Z,89.97
2023-03-17T09:38:39.092Z,89.71
2023-03-17T09:41:40.158Z,89.55
2023-03-17T09:44:42.532Z,89.77
2023-03-17T09:48:20.322Z,89.09
2023-03-17T09:51:12.985Z,88.64
2023-03-17T09:54:24.784Z,88.48
2023-03-17T09:57:50.612Z,88.05
2023-03-17T10:00:47.272Z,87.72
2023-03-17T10:03:32.389Z,87.80
2023-03-17T10:13:49.571Z,88.01
2023-03-17T10:17:17.213Z,87.96
2023-03-17T10:30:11.511Z,87.97
2023-03-17T10:32:48.119Z,88.18
2023-03-17T10:39:32.614Z,88.23
2023-03-17T10:42:15.649Z,88.10
2023-03-17T10:45:28.282Z,88.03
2023-03-17T10:47:59.467Z,87.58
2023-03-17T10:50:57.011Z,87.64
2023-03-17T10:53:37.709Z,87.60
2023-03-17T10:56:45.955Z,87.55
2023-03-17T10:59:46.434Z,87.33
2023-03-17T11:02:50.366Z,87.18
2023-03-17T11:05:29.328Z,87.42
2023-03-17T11:08:26.094Z,87.95
2023-03-17T11:25:48.086Z,87.62
2023-03-17T11:28:31.949Z,87.58
2023-03-17T11:31:14.504Z,87.83
2023-03-17T11:54:33.877Z,86.59
2023-03-17T11:57:55.461Z,86.36
2023-03-17T12:00:32.984Z,86.61
2023-03-17T12:04:16.589Z,86.58
2023-03-17T12:07:47.135Z,86.79
2023-03-17T12:37:28.817Z,87.84
2023-03-17T12:47:43.343Z,87.94
2023-03-17T12:53:52.606Z,87.41
2023-03-17T13:02:29.476Z,87.30
2023-03-17T13:05:52.302Z,87.12
2023-03-17T13:08:52.148Z,86.73
2023-03-17T13:11:26.902Z,86.96
2023-03-17T13:13:54.312Z,87.38
2023-03-17T13:16:38.457Z,87.68
2023-03-17T13:19:32.464Z,87.93
2023-03-17T13:22:06.780Z,87.89
2023-03-17T13:24:58.236Z,87.84
2023-03-17T13:28:20.588Z,87.86
2023-03-17T17:00:03.342Z,91.73
2023-03-17T17:19:57.508Z,91.01
2023-03-17T17:22:40.666Z,90.95
2023-03-17T17:53:52.916Z,91.13
2023-03-17T18:10:42.224Z,92.64
2023-03-17T19:54:04.281Z,91.39
2023-03-17T19:57:29.064Z,91.68
2023-03-17T20:00:24.148Z,91.46
2023-03-17T20:13:06.843Z,90.92
2023-03-17T20:18:40.991Z,90.86
2023-03-17T20:21:24.274Z,90.89
2023-03-17T20:24:11.589Z,90.85
2023-03-17T20:27:08.897Z,90.71
2023-03-17T20:29:52.331Z,90.68
2023-03-17T20:32:34.233Z,90.90
2023-03-17T20:35:06.130Z,90.96
2023-03-17T20:48:32.825Z,91.48
2023-03-17T20:51:25.030Z,91.40
2023-03-17T20:54:10.904Z,91.50
2023-03-17T21:01:31.990Z,91.62
2023-03-17T21:26:43.359Z,90.13
2023-03-17T23:21:46.153Z,89.09
2023-03-17T23:29:14.440Z,89.34
2023-03-17T23:48:49.973Z,89.82
